OPA Logo
 
ASOS:
At:2021.08.01 1255 UTC
Wind:190° @ 3KT
Viz: 10 mile(s)
Sky: clear
Temp: 60 F (16 C)
DewP: 57 F (14 C)
RH: 87%
Baro: 30.17 in.
ob: KBDN 011255Z AUTO 19003KT 10SM CLR 16/14 A3017 RMK AO2

ASOS: KRDM
At:2021.08.01 1156 UTC
Wind:090° @ 3KT
Viz: 10 mile(s)
Sky: clear
Temp: 61.0 F (16.1 C)
DewP: 55.9 F (13.3 C)
RH: 83%
Baro: 30.13 in.
ob: KRDM 011156Z AUTO 09003KT 10SM CLR 16/13 A3013 RMK AO2 SLP182 70001 T01610133 10211 20150 55000
Apache-SSL Logo

Valid HTML 4.01!

Central Oregon OPA Chapter

Calendar


Other Calendar pages

Oregon Pilots Association Events Calendar

Washington Pilots Association Events


Web page by: gem@rellim.com